• Join FlightAware (Why Join?)
  • Login
  • US Flag 
11:11AM EDT


 

Airport Tracker/Info


-or-


 

Live Flight TrackerFlight Track Log ✈ DAL268 ✈ 27-Sep-2013 ✈ KJFK - LLBG / TLV

Flight Track Log - Related Links

Times and Time Zones

All times are in EDT time to prevent confusion due to time zone crossing. See the DAL268 flight status page for this flight to view local times or setup timezone preferences in your user account.

Time Position Orientation Groundspeed Altitude Reporting Facility
EDT Latitude Longitude Course Direction KTS MPH feet Rate Location/Type
09:18PM 40.6320 -73.7790 180° South  Level FlightAware
09:21PM 40.4562 -73.4546 128° Southeast  Level FlightAware Approximate
09:22PM 40.3686 -73.3113 131° Southeast  Level FlightAware Approximate
09:23PM 40.2791 -73.1703 128° Southeast  Level FlightAware Approximate
09:25PM 40.6320 -73.7800 128° Southeast  Level FlightAware
09:31PM 40.5000 -73.5418 90° East  Level FlightAware Approximate
09:31PM 40.6340 -73.7770 90° East  Level FlightAware
09:36PM 40.4590 -73.4594 128° Southeast  Level FlightAware Approximate
09:36PM 40.6340 -73.7770 128° Southeast  Level FlightAware
09:38PM 40.5006 -73.5506 143° Southeast  Level FlightAware Approximate
09:39PM 40.4258 -73.4041 128° Southeast  Level FlightAware Approximate
09:46PM 40.4778 -73.4908 128° Southeast  Level FlightAware Approximate
09:47PM 40.3912 -73.3464 128° Southeast  Level FlightAware Approximate
09:47PM 40.6310 -73.7730 128° Southeast  Level FlightAware
09:48PM 40.3006 -73.2064 128° Southeast  Level FlightAware Approximate
09:53PM 40.4910 -73.5244 143° Southeast  Level FlightAware Approximate
09:59PM 40.6380 -73.8050 300° West 175 201  Level FlightAware
09:59PM 40.6480 -73.8290 299° West 192 221 300 840 Climbing FlightAware
09:59PM 40.6490 -73.8360 281° West 198 228 400 1,500 Climbing FlightAware
10:00PM 40.6400 -73.8690 250° West 211 243 1,200 1,440 Climbing FlightAware
10:00PM 40.6350 -73.8770 231° Southwest 219 252 1,300 840 Climbing FlightAware
10:00PM 40.6290 -73.8830 217° Southwest 225 259 1,400 840 Climbing FlightAware
10:00PM 40.6150 -73.8890 198° South 235 270 1,600 900 Climbing FlightAware
10:00PM 40.6100 -73.8900 189° South 238 274 1,700 840 Climbing FlightAware
10:01PM 40.5850 -73.8800 163° South 248 285 2,000 960 Climbing FlightAware
10:01PM 40.5780 -73.8720 139° Southeast 250 288 2,200 960 Climbing FlightAware
10:01PM 40.5760 -73.8680 123° Southeast 250 288 2,200 1,380 Level FlightAware
10:01PM 40.5710 -73.8560 119° Southeast 251 289 2,500 1,800 Climbing FlightAware
10:02PM 40.5600 -73.8250 115° Southeast 265 305 3,100 1,740 Climbing FlightAware
10:02PM 40.5490 -73.7970 117° Southeast 273 314 3,700 1,980 Climbing FlightAware
10:02PM 40.5370 -73.7690 119° Southeast 277 319 4,400 2,100 Climbing FlightAware
10:02PM 40.5270 -73.7460 120° Southeast 282 325 4,900 2,040 Climbing FlightAware
10:03PM 40.5150 -73.7140 116° Southeast 289 333 5,600 2,340 Climbing FlightAware
10:03PM 40.5000 -73.6750 117° Southeast 289 333 6,700 2,040 Climbing FlightAware
10:04PM 40.4860 -73.6410 118° Southeast 302 348 7,200 1,740 Climbing FlightAware
10:04PM 40.4730 -73.6110 120° Southeast 302 348 7,900 2,220 Climbing FlightAware
10:04PM 40.4650 -73.5900 117° Southeast 303 349 8,400 2,160 Climbing FlightAware
10:04PM 40.4500 -73.5540 119° Southeast 308 354 9,100 2,040 Climbing FlightAware
10:05PM 40.4350 -73.5170 118° Southeast 314 361 9,900 1,380 Climbing FlightAware
10:05PM 40.4120 -73.4600 118° Southeast 340 391 10,400 840 Climbing FlightAware
10:06PM 40.3850 -73.3940 118° Southeast 368 423 10,900 840 Climbing FlightAware
10:07PM 40.3570 -73.3260 118° Southeast 396 456 11,400 1,260 Climbing FlightAware
10:07PM 40.3230 -73.2460 119° Southeast 415 478 12,400 1,800 Climbing FlightAware
10:08PM 40.2860 -73.1800 126° Southeast 423 487 13,500 1,920 Climbing FlightAware
10:08PM 40.2300 -73.0840 127° Southeast 435 501 15,000 2,040 Climbing FlightAware
10:09PM 40.1920 -73.0190 127° Southeast 440 506 16,200 2,280 Climbing FlightAware
10:09PM 40.1703 -72.9831 128° Southeast 441 507 16,800 2,100 Climbing FlightAware ADS-B (KSNC)
10:10PM 40.1296 -72.9139 128° Southeast 444 511 17,900 1,920 Climbing FlightAware ADS-B (KSNC)
10:10PM 40.0910 -72.8490 128° Southeast 448 516 18,900 1,620 Climbing FlightAware
10:11PM 40.0410 -72.7640 128° Southeast 455 524 20,000 1,560 Climbing FlightAware
10:12PM 39.9960 -72.6880 128° Southeast 461 531 20,900 1,740 Climbing FlightAware
10:12PM 39.9480 -72.6070 128° Southeast 467 537 21,900 1,500 Climbing FlightAware
10:13PM 39.8960 -72.5210 128° Southeast 473 544 22,800 1,380 Climbing FlightAware
10:13PM 39.8660 -72.4620 124° Southeast 474 545 23,400 1,260 Climbing FlightAware
10:14PM 39.8440 -72.3840 110° East 472 543 24,000 900 Climbing FlightAware
10:15PM 39.8240 -72.2380 100° East 472 543 24,700 420 Climbing FlightAware
10:15PM 39.8100 -72.1530 102° East 472 543 24,700 1,440 Level FlightAware
10:16PM 39.8330 -72.2970 282° West 472 543 26,300 1,380 Climbing FlightAware
10:16PM 39.8190 -72.2080 102° East 472 543 26,300 660 Level FlightAware
10:17PM 39.7810 -71.7860 97° East 503 579 27,300 660 Climbing FlightAware
10:18PM 39.7720 -71.6940 97° East 503 579 27,300  Level FlightAware
10:18PM 39.7630 -71.6020 97° East 503 579 27,300  Level FlightAware
10:19PM 39.7550 -71.5100 96° East 503 579 27,300  Level FlightAware
10:20PM 39.7460 -71.4160 97° East 503 579 27,300  Level FlightAware
10:20PM 39.7370 -71.3240 97° East 503 579 27,300 4,140 Level FlightAware
10:21PM 39.7033 -71.1542 97° East 499 574 32,000 3,600 Climbing New York Center
10:22PM 39.6828 -70.9758 98° East 499 574 32,900 480 Climbing New York Center
10:23PM 39.6603 -70.8006 99° East 499 574 33,000  Climbing New York Center
10:24PM 39.6353 -70.6281 101° East 499 574 33,000  Level New York Center
10:25PM 39.6142 -70.4475 99° East 499 574 33,000  Level New York Center
10:26PM 39.5928 -70.2700 99° East 499 574 33,000  Level New York Center
10:27PM 39.5689 -70.0922 100° East 504 580 33,000  Level New York Center
10:28PM 39.5469 -69.9203 99° East 498 573 33,000  Level New York Center
10:29PM 39.5228 -69.7456 100° East 498 573 33,000  Level New York Center
10:30PM 39.5006 -69.5683 99° East 493 567 33,000  Level New York Center
10:31PM 39.4736 -69.3911 101° East 493 567 33,000  Level New York Center
10:32PM 39.4506 -69.2089 99° East 501 577 33,000  Level New York Center
10:33PM 39.4253 -69.0400 101° East 501 577 33,000  Level New York Center
10:34PM 39.3997 -68.8633 101° East 501 577 33,000  Level New York Center
10:35PM 39.3742 -68.6919 101° East 501 577 33,000  Level New York Center
10:36PM 39.3481 -68.5131 101° East 501 577 33,000  Level New York Center
10:37PM 39.3217 -68.3367 101° East 501 577 33,000  Level New York Center
10:38PM 39.2931 -68.1631 102° East 501 577 33,000  Level New York Center
10:39PM 39.2681 -67.9817 100° East 506 582 33,000  Level New York Center
10:40PM 39.2408 -67.8058 101° East 506 582 33,000  Level New York Center
10:41PM 39.2136 -67.6300 101° East 506 582 33,000  Level New York Center
10:42PM 39.1878 -67.4489 100° East 506 582 33,000  Level New York Center
10:43PM 39.1600 -67.2708 101° East 506 582 33,000  Level New York Center
10:44PM 39.1278 -67.0983 103° East 506 582 33,000  Level New York Center
10:46PM 39.1167 -67.0000 78° East 533 613 33,000  Level New York Oceanic (ODAPS)
10:52PM 39.3158 -65.6899 79° East 533 613 33,000  Level FlightAware Transoceanic
10:53PM 39.3431 -65.5022 79° East 533 613 33,000  Level FlightAware Transoceanic
10:54PM 39.3700 -65.3143 80° East 533 613 33,000  Level FlightAware Transoceanic
10:55PM 39.3967 -65.1263 80° East 533 613 33,000  Level FlightAware Transoceanic
10:56PM 39.4230 -64.9381 80° East 533 613 33,000  Level FlightAware Transoceanic
10:57PM 39.4490 -64.7498 80° East 533 613 33,000  Level FlightAware Transoceanic
10:58PM 39.4748 -64.5613 80° East 533 613 33,000  Level FlightAware Transoceanic
10:59PM 39.5002 -64.3727 80° East 533 613 33,000  Level FlightAware Transoceanic
11:00PM 39.5253 -64.1840 80° East 533 613 33,000  Level FlightAware Transoceanic
11:01PM 39.5502 -63.9951 80° East 533 613 33,000  Level FlightAware Transoceanic
11:02PM 39.5747 -63.8061 81° East 533 613 33,000  Level FlightAware Transoceanic
11:03PM 39.5989 -63.6169 81° East 533 613 33,000  Level FlightAware Transoceanic
11:04PM 39.6228 -63.4277 81° East 533 613 33,000  Level FlightAware Transoceanic
11:05PM 39.6464 -63.2383 81° East 533 613 33,000  Level FlightAware Transoceanic
11:06PM 39.6697 -63.0487 81° East 533 613 33,000  Level FlightAware Transoceanic
11:07PM 39.6926 -62.8591 81° East 533 613 33,000  Level FlightAware Transoceanic
11:08PM 39.7153 -62.6693 81° East 533 613 33,000  Level FlightAware Transoceanic
11:09PM 39.7377 -62.4794 81° East 533 613 33,000  Level FlightAware Transoceanic
11:10PM 39.7597 -62.2893 81° East 533 613 33,000  Level FlightAware Transoceanic
11:11PM 39.7814 -62.0992 82° East 533 613 33,000  Level FlightAware Transoceanic
11:12PM 39.8029 -61.9089 82° East 533 613 33,000  Level FlightAware Transoceanic
11:13PM 39.8240 -61.7185 82° East 533 613 33,000  Level FlightAware Transoceanic
11:14PM 39.8448 -61.5280 82° East 533 613 33,000  Level FlightAware Transoceanic
11:15PM 39.8653 -61.3374 82° East 533 613 33,000  Level FlightAware Transoceanic
11:16PM 39.8855 -61.1467 82° East 533 613 33,000  Level FlightAware Transoceanic
11:17PM 39.9053 -60.9558 82° East 533 613 33,000  Level FlightAware Transoceanic
11:18PM 39.9249 -60.7649 82° East 533 613 33,000  Level FlightAware Transoceanic
11:19PM 39.9441 -60.5738 83° East 533 613 33,000  Level FlightAware Transoceanic
11:20PM 39.9631 -60.3826 83° East 533 613 33,000  Level FlightAware Transoceanic
11:21PM 39.9817 -60.1914 83° East 533 613 33,000  Level FlightAware Transoceanic
11:22PM 40.0000 -60.0000 72° East 533 613 33,000  Level FlightAware Transoceanic
11:23PM 40.0493 -59.8023 72° East 533 613 33,000  Level FlightAware Transoceanic
11:24PM 40.0982 -59.6043 72° East 533 613 33,000  Level FlightAware Transoceanic
11:25PM 40.1468 -59.4059 72° East 533 613 33,000  Level FlightAware Transoceanic
11:26PM 40.1951 -59.2074 72° East 533 613 33,000  Level FlightAware Transoceanic
11:27PM 40.2430 -59.0085 73° East 533 613 33,000  Level FlightAware Transoceanic
11:28PM 40.2906 -58.8094 73° East 533 613 33,000  Level FlightAware Transoceanic
11:28PM 40.0000 -60.0000 72° East 552 635 33,000  Level New York Oceanic (ODAPS)
11:29PM 40.3378 -58.6099 73° East 533 613 33,000  Level FlightAware Transoceanic
11:30PM 40.3847 -58.4102 73° East 533 613 33,000  Level FlightAware Transoceanic
11:31PM 40.4313 -58.2103 73° East 533 613 33,000  Level FlightAware Transoceanic
11:32PM 40.4775 -58.0100 73° East 533 613 33,000  Level FlightAware Transoceanic
11:33PM 40.5234 -57.8095 73° East 533 613 33,000  Level FlightAware Transoceanic
11:34PM 40.5475 -57.7032 73° East 552 635 33,000  Level FlightAware Transoceanic
11:35PM 40.5911 -57.5101 74° East 552 635 33,000  Level FlightAware Transoceanic
11:36PM 40.6343 -57.3168 74° East 552 635 33,000  Level FlightAware Transoceanic
11:37PM 40.6772 -57.1232 74° East 552 635 33,000  Level FlightAware Transoceanic
11:38PM 40.7198 -56.9294 74° East 552 635 33,000  Level FlightAware Transoceanic
11:39PM 40.7621 -56.7354 74° East 552 635 33,000  Level FlightAware Transoceanic
11:40PM 40.8041 -56.5411 74° East 552 635 33,000  Level FlightAware Transoceanic
11:41PM 40.8457 -56.3465 74° East 552 635 33,000  Level FlightAware Transoceanic
11:42PM 40.8870 -56.1517 74° East 552 635 33,000  Level FlightAware Transoceanic
11:43PM 40.9279 -55.9567 75° East 552 635 33,000  Level FlightAware Transoceanic
11:44PM 40.9686 -55.7614 75° East 552 635 33,000  Level FlightAware Transoceanic
11:45PM 41.0089 -55.5659 75° East 552 635 33,000  Level FlightAware Transoceanic
11:46PM 41.0488 -55.3701 75° East 552 635 33,000  Level FlightAware Transoceanic
11:47PM 41.0885 -55.1741 75° East 552 635 33,000  Level FlightAware Transoceanic
11:48PM 41.1278 -54.9779 75° East 552 635 33,000  Level FlightAware Transoceanic
11:49PM 41.1668 -54.7814 75° East 552 635 33,000  Level FlightAware Transoceanic
11:50PM 41.2054 -54.5848 75° East 552 635 33,000  Level FlightAware Transoceanic
11:51PM 41.2437 -54.3878 76° East 552 635 33,000  Level FlightAware Transoceanic
11:52PM 41.2817 -54.1907 76° East 552 635 33,000  Level FlightAware Transoceanic
11:53PM 41.3193 -53.9933 76° East 552 635 33,000  Level FlightAware Transoceanic
11:54PM 41.3566 -53.7957 76° East 552 635 33,000  Level FlightAware Transoceanic
11:55PM 41.3936 -53.5978 76° East 552 635 33,000  Level FlightAware Transoceanic
11:56PM 41.4302 -53.3998 76° East 552 635 33,000  Level FlightAware Transoceanic
11:57PM 41.4664 -53.2015 76° East 552 635 33,000  Level FlightAware Transoceanic
11:58PM 41.5024 -53.0030 76° East 552 635 33,000  Level FlightAware Transoceanic
11:59PM 41.5380 -52.8043 77° East 552 635 33,000  Level FlightAware Transoceanic
12:00AM 41.5732 -52.6053 77° East 552 635 33,000  Level FlightAware Transoceanic
12:01AM 41.6081 -52.4062 77° East 552 635 33,000  Level FlightAware Transoceanic
12:02AM 41.6427 -52.2068 77° East 552 635 33,000  Level FlightAware Transoceanic
12:03AM 41.6769 -52.0072 77° East 552 635 33,000  Level FlightAware Transoceanic
12:04AM 41.7108 -51.8074 77° East 552 635 33,000  Level FlightAware Transoceanic
12:05AM 41.7443 -51.6074 77° East 552 635 33,000  Level FlightAware Transoceanic
12:06AM 41.7775 -51.4072 78° East 552 635 33,000  Level FlightAware Transoceanic
12:07AM 41.8103 -51.2068 78° East 552 635 33,000  Level FlightAware Transoceanic
12:08AM 41.8428 -51.0061 78° East 552 635 33,000  Level FlightAware Transoceanic
12:09AM 41.8750 -50.8053 78° East 552 635 33,000  Level FlightAware Transoceanic
12:10AM 41.9067 -50.6043 78° East 552 635 33,000  Level FlightAware Transoceanic
12:11AM 41.9382 -50.4030 78° East 552 635 33,000  Level FlightAware Transoceanic
12:12AM 41.9693 -50.2016 78° East 552 635 33,000  Level FlightAware Transoceanic
12:13AM 42.0000 -50.0000 71° East 552 635 33,000  Level FlightAware Transoceanic
12:14AM 42.0537 -49.7852 71° East 552 635 33,000  Level FlightAware Transoceanic
12:15AM 42.1070 -49.5700 72° East 552 635 33,000  Level FlightAware Transoceanic
12:15AM 42.0000 -50.0000 71° East 594 684 33,000  Level New York Oceanic (ODAPS)
12:16AM 42.1599 -49.3545 72° East 552 635 33,000  Level FlightAware Transoceanic
12:17AM 42.2124 -49.1385 72° East 552 635 33,000  Level FlightAware Transoceanic
12:18AM 42.2645 -48.9223 72° East 552 635 33,000  Level FlightAware Transoceanic
12:19AM 42.3162 -48.7057 72° East 552 635 33,000  Level FlightAware Transoceanic
12:20AM 42.3674 -48.4887 72° East 552 635 33,000  Level FlightAware Transoceanic
12:21AM 42.4589 -48.0963 73° East 594 684 33,000  Level FlightAware Transoceanic
12:22AM 42.5080 -47.8831 73° East 594 684 33,000  Level FlightAware Transoceanic
12:23AM 42.5566 -47.6696 73° East 594 684 33,000  Level FlightAware Transoceanic
12:24AM 42.6048 -47.4557 73° East 594 684 33,000  Level FlightAware Transoceanic
12:25AM 42.6527 -47.2415 73° East 594 684 33,000  Level FlightAware Transoceanic
12:26AM 42.7001 -47.0269 73° East 594 684 33,000  Level FlightAware Transoceanic
12:27AM 42.7472 -46.8121 73° East 594 684 33,000  Level FlightAware Transoceanic
12:28AM 42.7938 -46.5969 74° East 594 684 33,000  Level FlightAware Transoceanic
12:29AM 42.8401 -46.3814 74° East 594 684 33,000  Level FlightAware Transoceanic
12:30AM 42.8859 -46.1655 74° East 594 684 33,000  Level FlightAware Transoceanic
12:31AM 42.9313 -45.9494 74° East 594 684 33,000  Level FlightAware Transoceanic
12:32AM 42.9763 -45.7329 74° East 594 684 33,000  Level FlightAware Transoceanic
12:33AM 43.0210 -45.5161 74° East 594 684 33,000  Level FlightAware Transoceanic
12:34AM 43.0652 -45.2990 75° East 594 684 33,000  Level FlightAware Transoceanic
12:35AM 43.1089 -45.0816 75° East 594 684 33,000  Level FlightAware Transoceanic
12:36AM 43.1523 -44.8639 75° East 594 684 33,000  Level FlightAware Transoceanic
12:37AM 43.1953 -44.6458 75° East 594 684 33,000  Level FlightAware Transoceanic
12:38AM 43.2378 -44.4275 75° East 594 684 33,000  Level FlightAware Transoceanic
12:39AM 43.2800 -44.2089 75° East 594 684 33,000  Level FlightAware Transoceanic
12:40AM 43.3217 -43.9899 75° East 594 684 33,000  Level FlightAware Transoceanic
12:41AM 43.3630 -43.7707 76° East 594 684 33,000  Level FlightAware Transoceanic
12:42AM 43.4039 -43.5511 76° East 594 684 33,000  Level FlightAware Transoceanic
12:43AM 43.4443 -43.3313 76° East 594 684 33,000  Level FlightAware Transoceanic
12:44AM 43.4844 -43.1112 76° East 594 684 33,000  Level FlightAware Transoceanic
12:45AM 43.5240 -42.8908 76° East 594 684 33,000  Level FlightAware Transoceanic
12:46AM 43.5632 -42.6701 76° East 594 684 33,000  Level FlightAware Transoceanic
12:47AM 43.6019 -42.4491 76° East 594 684 33,000  Level FlightAware Transoceanic
12:48AM 43.6403 -42.2278 77° East 594 684 33,000  Level FlightAware Transoceanic
12:49AM 43.6782 -42.0062 77° East 594 684 33,000  Level FlightAware Transoceanic
12:50AM 43.7157 -41.7844 77° East 594 684 33,000  Level FlightAware Transoceanic
12:51AM 43.7527 -41.5623 77° East 594 684 33,000  Level FlightAware Transoceanic
12:52AM 43.7894 -41.3399 77° East 594 684 33,000  Level FlightAware Transoceanic
12:53AM 43.8256 -41.1172 77° East 594 684 33,000  Level FlightAware Transoceanic
12:54AM 43.8613 -40.8943 78° East 594 684 33,000  Level FlightAware Transoceanic
12:55AM 43.8966 -40.6711 78° East 594 684 33,000  Level FlightAware Transoceanic
12:56AM 43.9315 -40.4477 78° East 594 684 33,000  Level FlightAware Transoceanic
12:57AM 43.9660 -40.2240 78° East 594 684 33,000  Level FlightAware Transoceanic
12:58AM 44.0000 -40.0000 87° East 594 684 33,000  Level FlightAware Transoceanic
12:59AM 44.0097 -39.7733 87° East 594 684 33,000  Level FlightAware Transoceanic
01:00AM 44.0189 -39.5464 87° East 594 684 33,000  Level FlightAware Transoceanic
01:00AM 44.0000 -40.0000 87° East 601 692 33,000  Level ETMS Enhanced Traffic Management System
01:01AM 44.0277 -39.3195 87° East 594 684 33,000  Level FlightAware Transoceanic
01:02AM 44.0361 -39.0926 87° East 594 684 33,000  Level FlightAware Transoceanic
01:03AM 44.0439 -38.8656 87° East 594 684 33,000  Level FlightAware Transoceanic
01:04AM 44.0514 -38.6385 87° East 594 684 33,000  Level FlightAware Transoceanic
01:05AM 44.0584 -38.4113 88° East 594 684 33,000  Level FlightAware Transoceanic
01:06AM 44.0649 -38.1842 88° East 594 684 33,000  Level FlightAware Transoceanic
01:07AM 44.0722 -37.9093 88° East 601 692 33,000  Level FlightAware Transoceanic
01:08AM 44.0779 -37.6768 88° East 601 692 33,000  Level FlightAware Transoceanic
01:09AM 44.0831 -37.4441 88° East 601 692 33,000  Level FlightAware Transoceanic
01:10AM 44.0878 -37.2115 88° East 601 692 33,000  Level FlightAware Transoceanic
01:11AM 44.0921 -36.9788 89° East 601 692 33,000  Level FlightAware Transoceanic
01:12AM 44.0959 -36.7461 89° East 601 692 33,000  Level FlightAware Transoceanic
01:13AM 44.0992 -36.5133 89° East 601 692 33,000  Level FlightAware Transoceanic
01:14AM 44.1020 -36.2805 89° East 601 692 33,000  Level FlightAware Transoceanic
01:15AM 44.1044 -36.0477 89° East 601 692 33,000  Level FlightAware Transoceanic
01:16AM 44.1063 -35.8149 89° East 601 692 33,000  Level FlightAware Transoceanic
01:17AM 44.1077 -35.5821 90° East 601 692 33,000  Level FlightAware Transoceanic
01:18AM 44.1086 -35.3493 90° East 601 692 33,000  Level FlightAware Transoceanic
01:19AM 44.1091 -35.1164 90° East 601 692 33,000  Level FlightAware Transoceanic
01:20AM 44.1091 -34.8836 90° East 601 692 33,000  Level FlightAware Transoceanic
01:21AM 44.1086 -34.6507 90° East 601 692 33,000  Level FlightAware Transoceanic
01:22AM 44.1077 -34.4179 90° East 601 692 33,000  Level FlightAware Transoceanic
01:23AM 44.1063 -34.1851 91° East 601 692 33,000  Level FlightAware Transoceanic
01:24AM 44.1044 -33.9523 91° East 601 692 33,000  Level FlightAware Transoceanic
01:25AM 44.1020 -33.7195 91° East 601 692 33,000  Level FlightAware Transoceanic
01:26AM 44.0992 -33.4867 91° East 601 692 33,000  Level FlightAware Transoceanic
01:27AM 44.0959 -33.2539 91° East 601 692 33,000  Level FlightAware Transoceanic
01:28AM 44.0921 -33.0212 91° East 601 692 33,000  Level FlightAware Transoceanic
01:29AM 44.0878 -32.7885 92° East 601 692 33,000  Level FlightAware Transoceanic
01:30AM 44.0831 -32.5559 92° East 601 692 33,000  Level FlightAware Transoceanic
01:31AM 44.0779 -32.3232 92° East 601 692 33,000  Level FlightAware Transoceanic
01:32AM 44.0722 -32.0907 92° East 601 692 33,000  Level FlightAware Transoceanic
01:33AM 44.0661 -31.8581 92° East 601 692 33,000  Level FlightAware Transoceanic
01:34AM 44.0595 -31.6257 92° East 601 692 33,000  Level FlightAware Transoceanic
01:35AM 44.0524 -31.3932 93° East 601 692 33,000  Level FlightAware Transoceanic
01:36AM 44.0448 -31.1609 93° East 601 692 33,000  Level FlightAware Transoceanic
01:37AM 44.0368 -30.9286 93° East 601 692 33,000  Level FlightAware Transoceanic
01:38AM 44.0283 -30.6963 93° East 601 692 33,000  Level FlightAware Transoceanic
01:39AM 44.0193 -30.4641 93° East 601 692 33,000  Level FlightAware Transoceanic
01:40AM 44.0099 -30.2320 93° East 601 692 33,000  Level FlightAware Transoceanic
01:41AM 44.0000 -30.0000 87° East 601 692 33,000  Level FlightAware Transoceanic
01:42AM 44.0247 -29.7973 80° East  Level Estimated
01:43AM 44.0490 -29.5952 80° East  Level Estimated
01:44AM 44.0729 -29.3929 81° East  Level Estimated
01:45AM 44.0965 -29.1905 81° East  Level Estimated
01:46AM 44.1197 -28.9879 81° East  Level Estimated
01:47AM 44.1426 -28.7851 81° East  Level Estimated
01:48AM 44.1651 -28.5822 81° East  Level Estimated
01:49AM 44.1872 -28.3791 81° East  Level Estimated
01:50AM 44.2090 -28.1759 81° East  Level Estimated
01:51AM 44.2304 -27.9725 82° East  Level Estimated
01:52AM 44.2514 -27.7690 82° East  Level Estimated
01:53AM 44.2721 -27.5653 82° East  Level Estimated
01:54AM 44.2924 -27.3615 82° East  Level Estimated
01:55AM 44.3124 -27.1576 82° East  Level Estimated
01:56AM 44.3320 -26.9535 82° East  Level Estimated
01:57AM 44.3512 -26.7493 82° East  Level Estimated
01:58AM 44.3701 -26.5449 83° East  Level Estimated
01:59AM 44.3886 -26.3404 83° East  Level Estimated
02:00AM 44.4068 -26.1358 83° East  Level Estimated
02:01AM 44.4245 -25.9311 83° East  Level Estimated
02:02AM 44.4420 -25.7262 83° East  Level Estimated
02:03AM 44.4590 -25.5212 83° East  Level Estimated
02:04AM 44.4757 -25.3161 83° East  Level Estimated
02:05AM 44.4920 -25.1109 84° East  Level Estimated
02:06AM 44.5079 -24.9056 84° East  Level Estimated
02:07AM 44.5235 -24.7001 84° East  Level Estimated
02:08AM 44.5387 -24.4946 84° East  Level Estimated
02:09AM 44.5536 -24.2889 84° East  Level Estimated
02:10AM 44.5680 -24.0832 84° East  Level Estimated
02:11AM 44.5821 -23.8773 84° East  Level Estimated
02:12AM 44.5959 -23.6714 85° East  Level Estimated
02:13AM 44.6092 -23.4653 85° East  Level Estimated
02:14AM 44.6222 -23.2591 85° East  Level Estimated
02:15AM 44.6348 -23.0529 85° East  Level Estimated
02:16AM 44.6471 -22.8466 85° East  Level Estimated
02:17AM 44.6590 -22.6402 85° East  Level Estimated
02:18AM 44.6705 -22.4337 85° East  Level Estimated
02:19AM 44.6816 -22.2271 86° East  Level Estimated
02:20AM 44.6924 -22.0204 86° East  Level Estimated
02:21AM 44.7028 -21.8137 86° East  Level Estimated
02:22AM 44.7128 -21.6069 86° East  Level Estimated
02:23AM 44.7224 -21.4000 86° East  Level Estimated
02:24AM 44.7317 -21.1931 86° East  Level Estimated
02:25AM 44.7406 -20.9861 86° East  Level Estimated
02:26AM 44.7491 -20.7790 87° East  Level Estimated
02:27AM 44.7572 -20.5719 87° East  Level Estimated
02:28AM 44.7650 -20.3647 87° East  Level Estimated
02:29AM 44.7724 -20.1574 87° East  Level Estimated
02:30AM 44.7794 -19.9505 87° East  Level Estimated
02:31AM 44.7860 -19.7435 87° East  Level Estimated
02:32AM 44.7923 -19.5365 87° East  Level Estimated
02:33AM 44.7982 -19.3294 88° East  Level Estimated
02:34AM 44.8037 -19.1223 88° East  Level Estimated
02:35AM 44.8088 -18.9152 88° East  Level Estimated
02:36AM 44.8136 -18.7080 88° East  Level Estimated
02:37AM 44.8180 -18.5008 88° East  Level Estimated
02:38AM 44.8220 -18.2935 88° East  Level Estimated
02:39AM 44.8256 -18.0862 89° East  Level Estimated
02:40AM 44.8289 -17.8789 89° East  Level Estimated
02:41AM 44.8318 -17.6716 89° East  Level Estimated
02:42AM 44.8343 -17.4643 89° East  Level Estimated
02:43AM 44.8364 -17.2569 89° East  Level Estimated
02:44AM 44.8382 -17.0495 89° East  Level Estimated
02:45AM 44.8396 -16.8422 89° East  Level Estimated
02:46AM 44.8406 -16.6348 90° East  Level Estimated
02:47AM 44.8412 -16.4274 90° East  Level Estimated
02:48AM 44.8415 -16.2200 90° East  Level Estimated
02:49AM 44.8414 -16.0126 90° East  Level Estimated
02:50AM 44.8409 -15.8052 90° East  Level Estimated
02:51AM 44.8400 -15.5978 90° East  Level Estimated
02:52AM 44.8388 -15.3904 90° East  Level Estimated
02:53AM 44.8372 -15.1830 91° East  Level Estimated
02:54AM 44.8352 -14.9756 91° East  Level Estimated
02:55AM 44.8328 -14.7683 91° East  Level Estimated
02:56AM 44.8301 -14.5610 91° East  Level Estimated
02:57AM 44.8270 -14.3536 91° East  Level Estimated
02:58AM 44.8235 -14.1463 91° East  Level Estimated
02:59AM 44.8196 -13.9391 91° East  Level Estimated
03:00AM 44.8154 -13.7319 92° East  Level Estimated
03:01AM 44.8108 -13.5247 92° East  Level Estimated
03:02AM 44.8058 -13.3175 92° East  Level Estimated
03:03AM 44.8004 -13.1104 92° East  Level Estimated
03:04AM 44.7947 -12.9033 92° East  Level Estimated
03:05AM 44.7886 -12.6962 92° East  Level Estimated
03:06AM 44.7821 -12.4892 92° East  Level Estimated
03:06AM 43.3540 -11.6110 93° East 532 612 34,000  Level FlightAware
03:07AM 44.7752 -12.2823 93° East  Level Estimated
03:07AM 43.3410 -11.4980 99° East 529 609 34,000  Level FlightAware
03:07AM 43.3270 -11.3820 99° East 529 609 34,000  Level FlightAware
03:08AM 43.3160 -11.2800 98° East 529 609 34,000  Level FlightAware
03:08AM 43.2980 -11.1390 100° East 516 594 34,000 60 Level FlightAware
03:09AM 43.2810 -10.9990 99° East 517 595 34,100 600 Climbing FlightAware
03:10AM 43.2640 -10.8620 100° East 520 598 34,900 900 Climbing FlightAware
03:10AM 43.2530 -10.7690 99° East 526 605 35,200 720 Climbing FlightAware
03:11AM 43.2440 -10.7020 100° East 527 606 35,500 660 Climbing FlightAware
03:11AM 43.2240 -10.5420 100° East 528 608 36,000 360 Climbing FlightAware
03:12AM 43.2120 -10.4470 100° East 526 605 36,000  Level FlightAware
03:12AM 43.1970 -10.3340 100° East 525 604 36,000  Level FlightAware
03:13AM 43.1790 -10.1890 100° East 524 603 36,000  Level FlightAware
03:14AM 43.1660 -10.0920 100° East 523 602 36,000  Level FlightAware
03:14AM 43.1520 -9.9810 100° East 523 602 36,000  Level FlightAware
03:15AM 43.1340 -9.8470 100° East 522 601 36,000  Level FlightAware
03:15AM 43.1190 -9.7350 100° East 519 597 36,000  Level FlightAware
03:16AM 43.1070 -9.6480 101° East 518 596 36,000  Level FlightAware
03:17AM 43.0910 -9.5250 100° East 518 596 36,000  Level FlightAware
03:17AM 43.0730 -9.3970 101° East 517 595 36,000  Level FlightAware
03:18AM 43.0580 -9.2870 101° East 518 596 36,000  Level FlightAware
03:18AM 43.0450 -9.1910 100° East 519 597 36,000  Level FlightAware
03:19AM 43.0290 -9.0760 101° East 518 596 36,000  Level FlightAware
03:20AM 43.0110 -8.9490 101° East 516 594 36,000  Level FlightAware
03:20AM 42.9950 -8.8350 101° East 514 592 36,000  Level FlightAware
03:21AM 42.9760 -8.7080 102° East 512 589 36,000  Level FlightAware
03:21AM 42.9600 -8.5970 101° East 512 589 36,000  Level FlightAware
03:22AM 42.9450 -8.4880 101° East 513 590 36,000  Level FlightAware
03:23AM 42.9340 -8.3830 98° East 513 590 36,000  Level FlightAware
03:23AM 42.9270 -8.2790 95° East 513 590 36,000  Level FlightAware
03:24AM 42.9180 -8.1060 94° East 513 590 36,000  Level FlightAware
03:25AM 42.9100 -7.9740 95° East 513 590 36,000  Level FlightAware
03:25AM 42.9030 -7.8620 95° East 514 592 36,000  Level FlightAware
03:26AM 42.8960 -7.7490 95° East 512 589 36,000  Level FlightAware
03:26AM 42.8880 -7.6350 95° East 511 588 36,000  Level FlightAware
03:27AM 42.8800 -7.5200 95° East 511 588 36,000  Level FlightAware
03:28AM 42.8720 -7.4110 96° East 510 587 36,000  Level FlightAware
03:28AM 42.8640 -7.2980 95° East 509 586 36,000  Level FlightAware
03:29AM 42.8560 -7.1870 96° East 509 586 36,000  Level FlightAware
03:29AM 42.8460 -7.0520 96° East 508 585 36,000  Level FlightAware
03:30AM 42.8380 -6.9430 96° East 508 585 36,000  Level FlightAware
03:31AM 42.8300 -6.8310 96° East 509 586 36,000  Level FlightAware
03:31AM 42.8210 -6.7190 96° East 510 587 36,000  Level FlightAware
03:32AM 42.8120 -6.5960 96° East 512 589 36,000  Level FlightAware
03:32AM 42.8040 -6.5010 97° East 512 589 36,000  Level FlightAware
03:33AM 42.7940 -6.3720 96° East 512 589 36,000  Level FlightAware
03:33AM 42.7860 -6.2740 96° East 514 592 36,000  Level FlightAware
03:34AM 42.7780 -6.1610 95° East 517 595 36,000  Level FlightAware
03:35AM 42.7670 -6.0330 97° East 518 596 36,000  Level FlightAware
03:35AM 42.7570 -5.9190 97° East 520 598 36,000  Level FlightAware
03:36AM 42.7490 -5.8230 96° East 522 601 36,000  Level FlightAware
03:36AM 42.7400 -5.7090 96° East 524 603 36,000  Level FlightAware
03:37AM 42.7280 -5.5760 97° East 526 605 36,000  Level FlightAware
03:38AM 42.7180 -5.4620 97° East 529 609 36,000  Level FlightAware
03:38AM 42.7090 -5.3630 97° East 530 610 36,000  Level FlightAware
03:39AM 42.7000 -5.2510 96° East 531 611 36,000  Level FlightAware
03:39AM 42.6870 -5.1150 97° East 532 612 36,000  Level FlightAware
03:40AM 42.6740 -4.9680 97° East 531 611 36,000  Level FlightAware
03:41AM 42.6630 -4.8540 97° East 532 612 36,000  Level FlightAware
03:41AM 42.6510 -4.7250 97° East 532 612 36,000  Level FlightAware
03:42AM 42.6410 -4.6200 97° East 531 611 36,000  Level FlightAware
03:42AM 42.6300 -4.5030 97° East 530 610 36,000  Level FlightAware
03:43AM 42.6170 -4.3710 98° East 529 609 36,000  Level FlightAware
03:44AM 42.6070 -4.2730 98° East 529 609 36,000  Level FlightAware
03:44AM 42.5970 -4.1730 98° East 528 608 36,000  Level FlightAware
03:45AM 42.5850 -4.0480 97° East 525 604 36,000  Level FlightAware
03:45AM 42.5720 -3.9250 98° East 523 602 36,000  Level FlightAware
03:46AM 42.5600 -3.8000 97° East 522 601 36,000  Level FlightAware
03:47AM 42.5480 -3.6840 98° East 521 600 36,000  Level FlightAware
03:47AM 42.5350 -3.5580 98° East 522 601 36,000  Level FlightAware
03:48AM 42.5200 -3.4220 98° East 523 602 36,000  Level FlightAware
03:49AM 42.5080 -3.3140 99° East 524 603 36,000  Level FlightAware
03:49AM 42.4970 -3.2050 98° East 525 604 36,000  Level FlightAware
03:50AM 42.4850 -3.0950 98° East 525 604 36,000  Level FlightAware
03:50AM 42.4730 -2.9840 98° East 526 605 36,000  Level FlightAware
03:51AM 42.4540 -2.8570 101° East 525 604 36,000  Level FlightAware
03:52AM 42.4300 -2.7380 105° East 525 604 36,000  Level FlightAware
03:52AM 42.4060 -2.6190 105° East 526 605 36,000  Level FlightAware
03:53AM 42.3840 -2.5140 106° East 525 604 36,000  Level FlightAware
03:53AM 42.3600 -2.3980 106° East 527 606 36,000  Level FlightAware
03:54AM 42.3360 -2.2840 106° East 528 608 36,000  Level FlightAware
03:55AM 42.3140 -2.1770 106° East 528 608 36,000  Level FlightAware
03:55AM 42.2900 -2.0660 106° East 529 609 36,000  Level FlightAware
03:56AM 42.2680 -1.9610 106° East 531 611 36,000  Level FlightAware
03:56AM 42.2440 -1.8500 106° East 532 612 36,000  Level FlightAware
03:57AM 42.2160 -1.7200 106° East 533 613 36,000  Level FlightAware
03:57AM 42.1930 -1.6120 106° East 533 613 36,000  Level FlightAware
03:58AM 42.1680 -1.4980 106° East 534 615 36,000  Level FlightAware
03:59AM 42.1450 -1.3920 106° East 535 616 36,000  Level FlightAware
03:59AM 42.1190 -1.2750 107° East 538 619 36,000  Level FlightAware
04:00AM 42.0930 -1.1560 106° East 542 624 36,000  Level FlightAware
04:00AM 42.0710 -1.0530 106° East 541 623 36,000  Level FlightAware
04:01AM 42.0450 -0.9380 107° East 541 623 36,000  Level FlightAware
04:02AM 42.0180 -0.8190 107° East 542 624 36,000  Level FlightAware
04:02AM 41.9940 -0.7090 106° East 543 625 36,000  Level FlightAware
04:03AM 41.9730 -0.6160 107° East 542 624 36,000  Level FlightAware
04:03AM 41.9470 -0.5050 107° East 542 624 36,000  Level FlightAware
04:04AM 41.9200 -0.3850 107° East 541 623 36,000  Level FlightAware
04:04AM 41.8950 -0.2750 107° East 540 621 36,000  Level FlightAware
04:05AM 41.8820 -0.2170 107° East 539 620  Descending FlightAware
04:05AM 41.8540 -0.0960 107° East 538 619 36,000 30,420 Climbing FlightAware
04:06AM 41.8300 0.0070 107° East 537 618 36,000  Level FlightAware
04:06AM 41.8020 0.1240 108° East 536 617 36,000  Level FlightAware
04:07AM 41.7750 0.2390 107° East 535 616 36,000  Level FlightAware
04:08AM 41.7510 0.3430 107° East 533 613 36,000  Level FlightAware
04:08AM 41.7779 0.2287 288° West 534 615 36,000  Level FlightAware ADS-B
04:09AM 41.7000 0.5570 108° East 534 615 36,000  Level FlightAware
04:09AM 41.6927 0.5885 107° East 534 615 36,000  Level FlightAware ADS-B
04:09AM 41.6668 0.6959 108° East 532 612 36,000  Level FlightAware ADS-B
04:10AM 41.6434 0.7871 109° East 530 610 36,000  Level FlightAware ADS-B
04:11AM 41.6104 0.9120 109° East 530 610 36,000  Level FlightAware ADS-B
04:11AM 41.5867 1.0019 109° East 530 610 36,000  Level FlightAware ADS-B
04:12AM 41.5621 1.0957 109° East 531 611 36,000  Level FlightAware ADS-B
04:12AM 41.5316 1.2202 108° East 536 617 36,000  Level FlightAware ADS-B
04:13AM 41.5102 1.3164 107° East 536 617 36,000  Level FlightAware ADS-B
04:13AM 41.4887 1.4118 107° East 536 617 36,000  Level FlightAware ADS-B
04:14AM 41.4668 1.5080 107° East 536 617 36,000  Level FlightAware ADS-B
04:14AM 41.4445 1.6039 107° East 535 616 36,000  Level FlightAware ADS-B
04:15AM 41.4228 1.6963 107° East 534 615 36,000  Level FlightAware ADS-B
04:15AM 41.3988 1.7915 109° East 532 612 36,000  Level FlightAware ADS-B
04:16AM 41.3749 1.8848 109° East 533 613 36,000  Level FlightAware ADS-B
04:16AM 41.3450 2.0010 109° East 533 613 36,000  Level FlightAware
04:17AM 41.3290 2.0677 108° East 534 615 36,000  Level FlightAware ADS-B
04:18AM 41.2980 2.2270 104° East 538 619 36,000  Level FlightAware
04:18AM 41.2790 2.3480 102° East 538 619 36,000  Level FlightAware
04:19AM 41.2610 2.4630 102° East 537 618 36,000  Level FlightAware
04:19AM 41.2470 2.5630 101° East 537 618 36,000 -120 Level FlightAware
04:20AM 41.2270 2.6810 103° East 534 615 35,900 -120 Descending FlightAware
04:21AM 41.2080 2.7860 103° East 533 613 35,900  Level FlightAware
04:21AM 41.1870 2.9020 103° East 530 610 35,900  Level FlightAware
04:22AM 41.1660 3.0210 103° East 530 610 35,900  Level FlightAware
04:22AM 41.1480 3.1260 103° East 529 609 35,900  Level FlightAware
04:23AM 41.1340 3.2110 102° East 528 608 35,900  Level FlightAware
04:24AM 41.1110 3.3440 103° East 528 608 35,900  Level FlightAware
04:24AM 41.0920 3.4600 102° East 528 608 35,900  Level FlightAware
04:25AM 41.0680 3.5930 103° East 530 610 35,900  Level FlightAware
04:25AM 41.0520 3.6850 103° East 530 610 35,900  Level FlightAware
04:26AM 41.0350 3.7820 103° East 530 610 35,900  Level FlightAware
04:27AM 41.0180 3.8790 103° East 530 610 35,900  Level FlightAware
04:27AM 41.0010 3.9760 103° East 530 610 35,900  Level FlightAware
04:28AM 40.9840 4.0730 103° East 530 610 35,900  Level FlightAware
04:28AM 40.9480 4.2580 104° East 533 613 35,900  Level FlightAware
04:29AM 40.9300 4.3580 103° East 533 613 35,900  Level FlightAware
04:30AM 40.9020 4.5070 104° East 533 613 35,900  Level FlightAware
04:30AM 40.8830 4.6150 103° East 533 613 35,900  Level FlightAware
04:31AM 40.8660 4.7120 103° East 533 613 35,900  Level FlightAware
04:32AM 40.8490 4.8090 103° East 533 613 35,900  Level FlightAware
04:32AM 40.8310 4.9090 103° East 533 613 35,900  Level FlightAware
04:33AM 40.8140 5.0060 103° East 533 613 35,900  Level FlightAware
04:33AM 40.7980 5.0980 103° East 533 613 35,900  Level FlightAware
04:34AM 40.7810 5.1950 103° East 533 613 35,900  Level FlightAware
04:34AM 40.7640 5.2920 103° East 533 613 35,900  Level FlightAware
04:35AM 40.7470 5.3890 103° East 533 613 35,900  Level FlightAware
04:35AM 40.8220 5.5860 63° Northeast 35,900  Level FlightAware
04:35AM 40.8180 5.6550 94° East 543 625 35,900  Level FlightAware
04:36AM 40.8120 5.7490 95° East 543 625 35,900  Level FlightAware
04:37AM 40.8050 5.8670 94° East 543 625 35,900  Level FlightAware
04:37AM 40.7970 6.0000 94° East 542 624 35,900  Level FlightAware
04:38AM 40.7910 6.0970 95° East 541 623 35,900  Level FlightAware
04:39AM 40.7800 6.2900 94° East 540 621 35,900  Level FlightAware
04:39AM 40.7730 6.3990 95° East 539 620 35,900  Level FlightAware
04:40AM 40.7670 6.5110 94° East 537 618 35,900  Level FlightAware
04:40AM 40.7600 6.6170 95° East 536 617 35,900  Level FlightAware
04:41AM 40.7520 6.7390 95° East 533 613 35,900  Level FlightAware
04:42AM 40.7450 6.8540 95° East 529 609 35,900  Level FlightAware
04:42AM 40.7370 6.9760 95° East 528 608 35,900  Level FlightAware
04:43AM 40.7290 7.0760 96° East 525 604 35,900  Level FlightAware
04:43AM 40.7120 7.1890 101° East 521 600 35,900  Level FlightAware
04:44AM 40.6940 7.2950 103° East 516 594 35,900  Level FlightAware
04:45AM 40.6750 7.4150 102° East 517 595 35,900 60 Level FlightAware
04:45AM 40.6610 7.5100 101° East 514 592 36,000 720 Climbing FlightAware
04:46AM 40.6430 7.6200 102° East 515 593 36,700 720 Climbing FlightAware
04:46AM 40.6250 7.7230 103° East 516 594 36,900 120 Climbing FlightAware
04:47AM 40.6060 7.8340 103° East 515 593 36,900  Level FlightAware
04:47AM 40.5890 7.9390 102° East 513 590 36,900  Level FlightAware
04:48AM 40.5700 8.0470 103° East 512 589 36,900  Level FlightAware
04:49AM 40.5500 8.1660 102° East 511 588 36,900  Level FlightAware
04:49AM 40.5340 8.2580 103° East 511 588 36,900  Level FlightAware
04:50AM 40.5160 8.3640 103° East 513 590 36,900  Level FlightAware
04:50AM 40.4970 8.4710 103° East 513 590 36,900  Level FlightAware
04:51AM 40.4780 8.5760 103° East 514 592 36,900  Level FlightAware
04:52AM 40.4600 8.6810 103° East 514 592 36,900  Level FlightAware
04:52AM 40.4400 8.7880 104° East 513 590 36,900  Level FlightAware
04:53AM 40.4180 8.9110 103° East 514 592 36,900  Level FlightAware
04:53AM 40.4020 8.9990 103° East 514 592 36,900  Level FlightAware
04:54AM 40.3820 9.1070 104° East 512 589 36,900  Level FlightAware
04:54AM 40.3630 9.2120 103° East 513 590 36,900  Level FlightAware
04:55AM 40.3430 9.3200 104° East 514 592 36,900  Level FlightAware
04:56AM 40.3240 9.4240 103° East 514 592 36,900  Level FlightAware
04:56AM 40.3040 9.5320 104° East 514 592 36,900  Level FlightAware
04:57AM 40.2810 9.6520 104° East 514 592 36,900  Level FlightAware
04:57AM 40.2640 9.7440 104° East 515 593 36,900  Level FlightAware
04:58AM 40.2440 9.8530 103° East 515 593 36,900  Level FlightAware
04:59AM 40.2230 9.9590 105° East 515 593 36,900  Level FlightAware
04:59AM 40.2030 10.0660 104° East 515 593 36,900  Level FlightAware
05:00AM 40.1790 10.1900 104° East 514 592 36,900  Level FlightAware
05:00AM 40.1590 10.2970 104° East 516 594 36,900  Level FlightAware
05:01AM 40.1370 10.4040 105° East 515 593 36,900  Level FlightAware
05:02AM 40.1170 10.5080 104° East 513 590 36,900  Level FlightAware
05:02AM 40.0960 10.6140 104° East 513 590 36,900  Level FlightAware
05:03AM 40.0750 10.7210 104° East 512 589 36,900  Level FlightAware
05:03AM 40.0540 10.8270 104° East 512 589 36,900  Level FlightAware
05:04AM 40.0330 10.9300 105° East 513 590 36,900  Level FlightAware
05:04AM 40.0120 11.0370 104° East 513 590 36,900  Level FlightAware
05:05AM 39.9910 11.1400 105° East 514 592 36,900  Level FlightAware
05:06AM 39.9710 11.2410 104° East 514 592 36,900  Level FlightAware
05:06AM 39.9480 11.3510 105° East 516 594 36,900  Level FlightAware
05:07AM 39.9270 11.4560 105° East 517 595 36,900  Level FlightAware
05:07AM 39.9020 11.5750 105° East 517 595 36,900  Level FlightAware
05:08AM 39.8790 11.6880 105° East 518 596 36,900  Level FlightAware
05:09AM 39.8560 11.7970 105° East 518 596 36,900  Level FlightAware
05:09AM 39.8340 11.9060 105° East 520 598 36,900  Level FlightAware
05:10AM 39.8030 12.0510 106° East 518 596 36,900  Level FlightAware
05:11AM 39.7800 12.1600 105° East 520 598 36,900  Level FlightAware
05:11AM 39.7540 12.2810 106° East 522 601 36,900  Level FlightAware
05:12AM 39.7290 12.4000 105° East 524 603 36,900  Level FlightAware
05:13AM 39.7040 12.5140 106° East 524 603 36,900  Level FlightAware
05:13AM 39.6890 12.5840 106° East 521 600 36,900  Level FlightAware
05:14AM 39.6580 12.7300 105° East 524 603 36,900  Level FlightAware
05:14AM 39.6340 12.8390 106° East 524 603 36,900  Level FlightAware
05:15AM 39.6100 12.9470 106° East 524 603 36,900  Level FlightAware
05:16AM 39.5890 13.0440 106° East 523 602 36,900  Level FlightAware
05:16AM 39.5660 13.1480 106° East 524 603 36,900  Level FlightAware
05:17AM 39.5400 13.2620 106° East 524 603 36,900  Level FlightAware
05:17AM 39.5190 13.3590 106° East 523 602 36,900  Level FlightAware
05:18AM 39.4980 13.4540 106° East 523 602 36,900  Level FlightAware
05:18AM 39.4700 13.5750 107° East 523 602 36,900  Level FlightAware
05:19AM 39.4460 13.6820 106° East 524 603 36,900  Level FlightAware
05:20AM 39.4240 13.7800 106° East 524 603 36,900  Level FlightAware
05:20AM 39.3990 13.8890 106° East 523 602 36,900  Level FlightAware
05:21AM 39.3750 13.9960 106° East 523 602 36,900  Level FlightAware
05:21AM 39.3530 14.0920 106° East 524 603 36,900  Level FlightAware
05:22AM 39.3260 14.2070 107° East 524 603 36,900  Level FlightAware
05:23AM 39.3090 14.3110 102° East 523 602 36,900  Level FlightAware
05:23AM 39.2990 14.4150 97° East 523 602 36,900  Level FlightAware
05:24AM 39.2850 14.5600 97° East 522 601 36,900  Level FlightAware
05:25AM 39.2740 14.6730 97° East 522 601 36,900  Level FlightAware
05:25AM 39.2620 14.7860 98° East 522 601 36,900  Level FlightAware
05:26AM 39.2520 14.8920 97° East 522 601 36,900  Level FlightAware
05:26AM 39.2410 14.9960 98° East 521 600 36,900  Level FlightAware
05:27AM 39.2300 15.0990 98° East 519 597 36,900  Level FlightAware
05:27AM 39.2180 15.2120 98° East 519 597 36,900  Level FlightAware
05:28AM 39.2060 15.3280 98° East 519 597 36,900  Level FlightAware
05:29AM 39.1930 15.4450 98° East 519 597 36,900  Level FlightAware
05:29AM 39.1810 15.5660 97° East 519 597 36,900  Level FlightAware
05:30AM 39.1690 15.6710 98° East 519 597 36,900  Level FlightAware
05:31AM 39.1570 15.7800 98° East 522 601 36,900  Level FlightAware
05:31AM 39.1460 15.8810 98° East 522 601 36,900  Level FlightAware
05:32AM 39.1340 15.9870 98° East 522 601 36,900  Level FlightAware
05:32AM 39.1220 16.0960 98° East 522 601 36,900  Level FlightAware
05:33AM 39.1110 16.1960 98° East 521 600 36,900  Level FlightAware
05:33AM 39.0990 16.2970 99° East 520 598 36,900  Level FlightAware
05:34AM 39.0880 16.3960 98° East 519 597 36,900  Level FlightAware
05:34AM 39.0740 16.4950 100° East 519 597 36,900  Level FlightAware
05:35AM 39.0500 16.6160 104° East 518 596 36,900  Level FlightAware
05:36AM 39.0320 16.7060 104° East 517 595 36,900  Level FlightAware
05:36AM 39.0090 16.8180 105° East 516 594 36,900  Level FlightAware
05:37AM 38.9850 16.9300 105° East 515 593 36,900  Level FlightAware
05:37AM 38.9650 17.0260 105° East 515 593 36,900  Level FlightAware
05:38AM 38.9430 17.1310 105° East 515 593 36,900  Level FlightAware
05:39AM 38.9200 17.2380 105° East 515 593 36,900  Level FlightAware
05:39AM 38.9010 17.3270 105° East 516 594 36,900  Level FlightAware
05:40AM 38.8780 17.4380 105° East 516 594 36,900  Level FlightAware
05:40AM 38.8550 17.5440 106° East 516 594 36,900  Level FlightAware
05:41AM 38.8330 17.6460 105° East 516 594 36,900  Level FlightAware
05:41AM 38.8110 17.7470 106° East 516 594 36,900  Level FlightAware
05:42AM 38.7880 17.8520 106° East 515 593 36,900  Level FlightAware
05:43AM 38.7650 17.9570 106° East 512 589 36,900  Level FlightAware
05:43AM 38.7450 18.0470 106° East 510 587 36,900  Level FlightAware
05:44AM 38.7200 18.1600 106° East 510 587 36,900  Level FlightAware
05:44AM 38.6980 18.2590 106° East 510 587 36,900  Level FlightAware
05:45AM 38.6740 18.3690 106° East 510 587 36,900  Level FlightAware
05:46AM 38.6540 18.4580 106° East 509 586 36,900  Level FlightAware
05:46AM 38.6300 18.5640 106° East 510 587 36,900  Level FlightAware
05:47AM 38.6060 18.6710 106° East 510 587 36,900  Level FlightAware
05:47AM 38.5820 18.7730 107° East 510 587 36,900  Level FlightAware
05:48AM 38.5570 18.8650 109° East 510 587 36,900  Level FlightAware
05:49AM 38.5260 18.9740 110° East 509 586 36,900  Level FlightAware
05:49AM 38.4920 19.0890 111° Southeast 511 588 36,900  Level FlightAware
05:50AM 38.4660 19.1800 110° East 511 588 36,900  Level FlightAware
05:50AM 38.4370 19.2740 111° Southeast 512 589 36,900  Level FlightAware
05:51AM 38.4100 19.3670 110° East 513 590 36,900  Level FlightAware
05:52AM 38.3850 19.4500 111° Southeast 514 592 36,900  Level FlightAware
05:52AM 38.3480 19.5720 111° Southeast 514 592 36,900  Level FlightAware
05:53AM 38.3240 19.6540 110° East 513 590 36,900  Level FlightAware
05:54AM 38.2840 19.7880 111° Southeast 515 593 36,900  Level FlightAware
05:54AM 38.2560 19.8790 111° Southeast 515 593 36,900  Level FlightAware
05:55AM 38.2030 20.0560 111° Southeast 516 594 36,900  Level FlightAware
05:56AM 38.1700 20.1640 111° Southeast 517 595 36,900  Level FlightAware
05:56AM 38.1260 20.3070 111° Southeast 517 595 36,900  Level FlightAware
05:57AM 38.0950 20.4060 112° Southeast 518 596 36,900  Level FlightAware
05:58AM 38.0650 20.5050 111° Southeast 518 596 36,900  Level FlightAware
05:59AM 38.0170 20.6600 111° Southeast 519 597 36,900  Level FlightAware
05:59AM 37.9910 20.7470 111° Southeast 519 597 36,900  Level FlightAware
06:00AM 37.9480 20.8800 112° Southeast 519 597 36,900  Level FlightAware
06:00AM 37.9160 20.9840 111° Southeast 519 597 36,900  Level FlightAware
06:01AM 37.8810 21.0930 112° Southeast 518 596 36,900  Level FlightAware
06:02AM 37.8430 21.2100 112° Southeast 519 597 36,900  Level FlightAware
06:02AM 37.8170 21.2930 112° Southeast 520 598 36,900  Level FlightAware
06:03AM 37.7830 21.3990 112° Southeast 520 598 36,900  Level FlightAware
06:03AM 37.7540 21.4920 111° Southeast 522 601 36,900  Level FlightAware
06:04AM 37.7250 21.5790 113° Southeast 522 601 36,900  Level FlightAware
06:04AM 37.6950 21.6740 112° Southeast 522 601 36,900  Level FlightAware
06:05AM 37.6560 21.7930 112° Southeast 522 601 36,900  Level FlightAware
06:06AM 37.6220 21.8980 112° Southeast 522 601 36,900  Level FlightAware
06:06AM 37.5930 21.9860 113° Southeast 523 602 36,900  Level FlightAware
06:07AM 37.5630 22.0780 112° Southeast 524 603 36,900  Level FlightAware
06:08AM 37.5250 22.1940 112° Southeast 525 604 36,900  Level FlightAware
06:08AM 37.4930 22.2910 113° Southeast 525 604 36,900  Level FlightAware
06:09AM 37.4610 22.3870 113° Southeast 526 605 36,900  Level FlightAware
06:09AM 37.4290 22.4830 113° Southeast 525 604 36,900  Level FlightAware
06:10AM 37.3950 22.5830 113° Southeast 526 605 36,900  Level FlightAware
06:10AM 37.3650 22.6730 113° Southeast 525 604 36,900  Level FlightAware
06:11AM 37.3290 22.7820 113° Southeast 525 604 36,900  Level FlightAware
06:12AM 37.2990 22.8700 113° Southeast 525 604 36,900  Level FlightAware
06:12AM 37.2620 22.9780 113° Southeast 526 605 36,900  Level FlightAware
06:13AM 37.2320 23.0680 113° Southeast 527 606 36,900  Level FlightAware
06:13AM 37.1960 23.1710 114° Southeast 527 606 36,900  Level FlightAware
06:14AM 37.1610 23.2740 113° Southeast 527 606 36,900  Level FlightAware
06:15AM 37.1280 23.3710 113° Southeast 526 605 36,900  Level FlightAware
06:15AM 37.0970 23.4590 114° Southeast 527 606 36,900  Level FlightAware
06:16AM 37.0640 23.5560 113° Southeast 526 605 36,900  Level FlightAware
06:16AM 37.0250 23.6680 114° Southeast 526 605 36,900  Level FlightAware
06:17AM 36.9930 23.7590 114° Southeast 527 606 36,900  Level FlightAware
06:17AM 36.9570 23.8630 113° Southeast 527 606 36,900  Level FlightAware
06:18AM 36.9240 23.9560 114° Southeast 527 606 36,900  Level FlightAware
06:19AM 36.8900 24.0530 114° Southeast 527 606 36,900  Level FlightAware
06:19AM 36.8570 24.1470 114° Southeast 526 605 36,900  Level FlightAware
06:20AM 36.8220 24.2450 114° Southeast 527 606 36,900  Level FlightAware
06:20AM 36.7890 24.3380 114° Southeast 528 608 36,900  Level FlightAware
06:21AM 36.7530 24.4380 114° Southeast 528 608 36,900  Level FlightAware
06:22AM 36.7160 24.5410 114° Southeast 528 608 36,900  Level FlightAware
06:22AM 36.6790 24.6440 114° Southeast 529 609 36,900  Level FlightAware
06:23AM 36.6480 24.7310 114° Southeast 529 609 36,900  Level FlightAware
06:23AM 36.6120 24.8310 114° Southeast 529 609 36,900  Level FlightAware
06:24AM 36.5750 24.9330 114° Southeast 528 608 36,900  Level FlightAware
06:24AM 36.5430 25.0190 115° Southeast 527 606 36,900  Level FlightAware
06:25AM 36.5050 25.1250 114° Southeast 529 609 36,900  Level FlightAware
06:26AM 36.4690 25.2240 114° Southeast 530 610 36,900  Level FlightAware
06:26AM 36.4350 25.3140 115° Southeast 531 611 36,900  Level FlightAware
06:27AM 36.4010 25.4060 115° Southeast 532 612 36,900  Level FlightAware
06:27AM 36.3620 25.5140 114° Southeast 533 613 36,900  Level FlightAware
06:28AM 36.3260 25.6080 115° Southeast 533 613 36,900  Level FlightAware
06:28AM 36.2910 25.7030 115° Southeast 535 616 36,900  Level FlightAware
06:29AM 36.2530 25.8050 115° Southeast 535 616 36,900  Level FlightAware
06:30AM 36.2160 25.9050 115° Southeast 536 617 36,900  Level FlightAware
06:30AM 36.1780 26.0060 115° Southeast 536 617 36,900  Level FlightAware
06:31AM 36.1450 26.0940 115° Southeast 535 616 36,900  Level FlightAware
06:31AM 36.1060 26.1970 115° Southeast 536 617 36,900  Level FlightAware
06:32AM 36.0690 26.2940 115° Southeast 537 618 36,900  Level FlightAware
06:33AM 36.0350 26.3830 115° Southeast 537 618 36,900  Level FlightAware
06:33AM 35.9970 26.4840 115° Southeast 536 617 36,900  Level FlightAware
06:34AM 35.9630 26.5710 116° Southeast 537 618 36,900  Level FlightAware
06:34AM 35.9220 26.6790 115° Southeast 537 618 36,900  Level FlightAware
06:35AM 35.8680 26.8200 115° Southeast 537 618 36,900  Level FlightAware
06:36AM 35.8360 26.9050 115° Southeast 537 618 36,900  Level FlightAware
06:36AM 35.8040 26.9900 115° Southeast 537 618 36,900  Level FlightAware
06:37AM 35.7480 27.1280 117° Southeast 538 619 36,900  Level FlightAware
06:38AM 35.7090 27.2290 115° Southeast 537 618 36,900  Level FlightAware
06:38AM 35.6760 27.3140 116° Southeast 536 617 36,900  Level FlightAware
06:39AM 35.6360 27.4140 116° Southeast 536 617 36,900  Level FlightAware
06:39AM 35.5980 27.5130 115° Southeast 536 617 36,900  Level FlightAware
06:40AM 35.5640 27.5980 116° Southeast 535 616 36,900  Level FlightAware
06:41AM 35.5240 27.6990 116° Southeast 535 616 36,900  Level FlightAware
06:41AM 35.4850 27.7980 116° Southeast 534 615 36,900  Level FlightAware
06:42AM 35.4470 27.8940 116° Southeast 534 615 36,900  Level FlightAware
06:42AM 35.4180 27.9670 116° Southeast 534 615 36,900  Level FlightAware
06:43AM 35.3700 28.0860 116° Southeast 535 616 36,900  Level FlightAware
06:43AM 35.3350 28.1730 116° Southeast 535 616 36,900  Level FlightAware
06:44AM 35.2960 28.2710 116° Southeast 535 616 36,900  Level FlightAware
06:45AM 35.2480 28.3890 116° Southeast 535 616 36,900  Level FlightAware
06:45AM 35.2160 28.4680 116° Southeast 535 616 36,900  Level FlightAware
06:46AM 35.1770 28.5630 117° Southeast 532 612 36,900  Level FlightAware
06:46AM 35.1370 28.6630 116° Southeast 536 617 36,900  Level FlightAware
06:47AM 35.1010 28.7530 116° Southeast 536 617 36,900  Level FlightAware
06:48AM 35.0420 28.8980 116° Southeast 536 617 36,900  Level FlightAware
06:48AM 35.0030 28.9910 117° Southeast 535 616 36,900  Level FlightAware
06:49AM 34.9510 29.1180 117° Southeast 535 616 36,900  Level FlightAware
06:50AM 34.9000 29.2400 117° Southeast 535 616 36,900  Level FlightAware
06:51AM 34.8530 29.3550 116° Southeast 534 615 36,900  Level FlightAware
06:51AM 34.8070 29.4660 117° Southeast 535 616 36,900  Level FlightAware
06:52AM 34.7590 29.5800 117° Southeast 535 616 36,900  Level FlightAware
06:53AM 34.7200 29.6730 117° Southeast 535 616 36,900  Level FlightAware
06:53AM 34.6780 29.7730 117° Southeast 537 618 36,900  Level FlightAware
06:54AM 34.6370 29.8710 117° Southeast 538 619 36,900  Level FlightAware
06:55AM 34.6020 29.9590 116° Southeast 538 619 36,900  Level FlightAware
06:55AM 34.5680 30.0420 116° Southeast 538 619 36,900  Level FlightAware
06:56AM 34.5010 30.1710 122° Southeast 533 613 36,900  Level FlightAware
06:56AM 34.4610 30.2540 120° Southeast 533 613 36,900  Level FlightAware
06:57AM 34.4130 30.3550 120° Southeast 535 616 36,900  Level FlightAware
06:57AM 34.3740 30.4360 120° Southeast 535 616 36,900  Level FlightAware
06:58AM 34.3240 30.5420 120° Southeast 539 620 36,900  Level FlightAware
06:59AM 34.2830 30.6270 120° Southeast 539 620 36,900  Level FlightAware
06:59AM 34.2460 30.7040 120° Southeast 541 623 36,900  Level FlightAware
07:00AM 34.2010 30.7970 120° Southeast 540 621 36,900  Level FlightAware
07:00AM 34.1540 30.8930 121° Southeast 539 620 36,900  Level FlightAware
07:01AM 34.1030 30.9980 120° Southeast 537 618 36,900  Level FlightAware
07:02AM 34.0590 31.0890 120° Southeast 535 616 36,900  Level FlightAware
07:02AM 34.0220 31.1650 120° Southeast 534 615 36,900  Level FlightAware
07:03AM 33.9750 31.2600 121° Southeast 529 609 36,900  Level FlightAware
07:03AM 33.9320 31.3490 120° Southeast 534 615 36,900  Level FlightAware
07:04AM 33.8880 31.4390 120° Southeast 531 611 36,900  Level FlightAware
07:05AM 33.8450 31.5270 120° Southeast 536 617 36,900  Level FlightAware
07:05AM 33.7980 31.6210 121° Southeast 536 617 36,900  Level FlightAware
07:06AM 33.7550 31.7090 120° Southeast 537 618 36,900  Level FlightAware
07:06AM 33.7140 31.7910 121° Southeast 538 619 36,900  Level FlightAware
07:07AM 33.6690 31.8800 121° Southeast 539 620 36,900  Level FlightAware
07:07AM 33.6260 31.9670 121° Southeast 539 620 36,900  Level FlightAware
07:08AM 33.5740 32.0710 121° Southeast 539 620 36,900  Level FlightAware
07:09AM 33.5350 32.1500 121° Southeast 539 620 36,900  Level FlightAware
07:09AM 33.4890 32.2420 121° Southeast 540 621 36,900 -300 Level FlightAware
07:10AM 33.4430 32.3320 121° Southeast 536 617 36,600 -720 Descending FlightAware
07:11AM 33.3550 32.5080 121° Southeast 538 619 35,600 -1,020 Descending FlightAware
07:12AM 33.3080 32.6000 121° Southeast 529 609 34,900 -1,080 Descending FlightAware
07:12AM 33.2570 32.7010 121° Southeast 521 600 34,300 -1,440 Descending FlightAware
07:13AM 33.2130 32.7870 121° Southeast 512 589 33,100 -2,160 Descending FlightAware
07:14AM 33.1580 32.8950 121° Southeast 498 573 31,500 -2,220 Descending FlightAware
07:14AM 33.1000 33.0080 121° Southeast 487 560 29,700 -2,280 Descending FlightAware
07:15AM 33.0600 33.0850 122° Southeast 476 548 28,400 -2,040 Descending FlightAware
07:16AM 33.0150 33.1620 125° Southeast 458 527 27,300 -1,980 Descending FlightAware
07:16AM 32.9740 33.2310 125° Southeast 446 513 26,100 -1,080 Descending FlightAware
07:17AM 32.9240 33.3150 125° Southeast 446 513 25,900 -1,860 Descending FlightAware
07:17AM 32.8790 33.3930 124° Southeast 412 474 23,600 -2,880 Descending FlightAware
07:18AM 32.8440 33.4530 125° Southeast 399 459 22,700 -1,680 Descending FlightAware
07:19AM 32.8040 33.5230 124° Southeast 386 444 21,600 -1,680 Descending FlightAware
07:19AM 32.7670 33.5860 125° Southeast 389 448 20,600 -1,680 Descending FlightAware
07:20AM 32.7330 33.6430 125° Southeast 394 453 19,700 -1,620 Descending FlightAware
07:20AM 32.6990 33.7010 125° Southeast 382 440 18,800 -1,620 Descending FlightAware
07:21AM 32.6600 33.7680 125° Southeast 370 426 17,800 -1,620 Descending FlightAware
07:22AM 32.6250 33.8270 125° Southeast 360 414 16,900 -1,500 Descending FlightAware
07:22AM 32.5950 33.8770 125° Southeast 370 426 16,100 -1,620 Descending FlightAware
07:23AM 32.5590 33.9390 125° Southeast 366 421 15,100 -1,680 Descending FlightAware
07:23AM 32.5300 33.9880 125° Southeast 356 410 14,300 -1,500 Descending FlightAware
07:24AM 32.4940 34.0480 125° Southeast 345 397 13,400 -1,380 Descending FlightAware
07:24AM 32.4630 34.1000 125° Southeast 337 388 12,600 -1,500 Descending FlightAware
07:25AM 32.4290 34.1560 126° Southeast 320 368 11,600 -1,440 Descending FlightAware
07:26AM 32.4020 34.2010 125° Southeast 305 351 11,000 -1,200 Descending FlightAware
07:26AM 32.3760 34.2440 126° Southeast 300 345 10,300 -1,380 Descending FlightAware
07:27AM 32.3600 34.2730 123° Southeast 297 342 9,800 -660 Descending FlightAware
07:27AM 32.3340 34.3150 126° Southeast 295 339 9,700 -120 Descending FlightAware
07:28AM 32.3180 34.3420 125° Southeast 295 339 9,700  Level FlightAware
07:28AM 32.3010 34.3720 124° Southeast 295 339 9,700  Level FlightAware
07:28AM 32.2850 34.3990 125° Southeast 295 339 9,700 -1,020 Level FlightAware
07:31AM 32.0892 34.6903 125° Southeast  Level FlightAware Approximate
07:32AM 32.0161 34.8398 125° Southeast  Level FlightAware Approximate
07:32AM 32.1210 34.6970 125° Southeast 5,000  Level FlightAware
07:33AM 32.1020 34.7310 123° Southeast 267 307 5,000  Level FlightAware
07:33AM 32.0910 34.7510 123° Southeast 268 308 5,000 -180 Level FlightAware
07:33AM 32.0700 34.7800 131° Southeast 240 276 4,900 -540 Descending FlightAware
07:34AM 32.0540 34.7980 136° Southeast 234 269 4,600 -420 Descending FlightAware
07:34AM 32.0360 34.8190 135° Southeast 234 269 4,600 -420 Level FlightAware
07:35AM 32.0540 34.7980 315° West 213 245 4,100 -900 Descending FlightAware
07:35AM 31.9970 34.8630 136° Southeast 189 217 3,800 -1,920 Descending FlightAware
07:36AM 31.9950 34.8900 95° East 195 224 3,000 -1,020 Descending FlightAware
07:36AM 31.9990 34.9150 125° Southeast 195 224 2,900 -240 Descending FlightAware
07:36AM 31.9990 34.9150 79° East 195 224 2,900  Level FlightAware
07:39AM 32.0000 34.8667 125° Southeast  Level FlightAware Approximate